createdAt,value
2019-01-17T00:00:56.142Z,4.94
2019-01-17T00:01:56.831Z,4.95
2019-01-17T00:02:56.147Z,4.95
2019-01-17T00:03:56.236Z,4.96
2019-01-17T00:04:56.334Z,4.95
2019-01-17T00:05:56.436Z,4.97
2019-01-17T00:06:56.160Z,4.94
2019-01-17T00:07:56.137Z,4.93
2019-01-17T00:08:56.144Z,4.96
2019-01-17T00:09:56.397Z,4.93
2019-01-17T00:10:56.260Z,4.96
2019-01-17T00:11:56.115Z,4.96
2019-01-17T00:12:56.437Z,4.97
2019-01-17T00:13:56.146Z,4.98
2019-01-17T00:14:56.096Z,4.99
2019-01-17T00:15:56.537Z,5.01
2019-01-17T00:16:56.069Z,5.02
2019-01-17T00:17:56.047Z,5.04
2019-01-17T00:18:56.384Z,5.02
2019-01-17T00:19:56.173Z,5
2019-01-17T00:20:56.095Z,5.03
2019-01-17T00:21:56.246Z,5.05
2019-01-17T00:22:56.430Z,5.06
2019-01-17T00:23:56.096Z,5.1
2019-01-17T00:24:56.317Z,5.14
2019-01-17T00:25:56.426Z,5.19
2019-01-17T00:26:55.841Z,5.19
2019-01-17T00:27:56.335Z,5.18
2019-01-17T00:28:56.346Z,5.21
2019-01-17T00:29:56.648Z,5.22
2019-01-17T00:30:57.206Z,5.24
2019-01-17T00:31:56.364Z,5.24
2019-01-17T00:32:56.374Z,5.26
2019-01-17T00:33:56.070Z,5.25
2019-01-17T00:34:56.402Z,5.29
2019-01-17T00:35:56.141Z,5.29
2019-01-17T00:36:56.162Z,5.26
2019-01-17T00:37:56.317Z,5.31
2019-01-17T00:38:56.390Z,5.32
2019-01-17T00:39:56.365Z,5.33
2019-01-17T00:40:56.015Z,5.35
2019-01-17T00:41:56.072Z,5.4
2019-01-17T00:42:56.187Z,5.38
2019-01-17T00:43:56.338Z,5.39
2019-01-17T00:44:56.549Z,5.4
2019-01-17T00:45:56.270Z,5.39
2019-01-17T00:46:56.125Z,5.42
2019-01-17T00:47:56.340Z,5.44
2019-01-17T00:48:56.705Z,5.42
2019-01-17T00:49:56.048Z,5.46
2019-01-17T00:50:55.898Z,5.47
2019-01-17T00:51:56.174Z,5.49
2019-01-17T00:52:57.823Z,5.48
2019-01-17T00:53:56.136Z,5.51
2019-01-17T00:54:56.209Z,5.5
2019-01-17T00:55:56.247Z,5.5
2019-01-17T00:56:56.394Z,5.55
2019-01-17T00:57:56.321Z,5.51
2019-01-17T00:58:55.986Z,5.5
2019-01-17T00:59:56.205Z,5.49
2019-01-17T01:00:56.138Z,5.53
2019-01-17T01:01:56.382Z,5.53
2019-01-17T01:02:56.282Z,5.53
2019-01-17T01:03:56.279Z,5.59
2019-01-17T01:04:56.400Z,5.56
2019-01-17T01:05:56.346Z,5.57
2019-01-17T01:06:56.278Z,5.58
2019-01-17T01:07:56.129Z,5.55
2019-01-17T01:08:56.214Z,5.57
2019-01-17T01:09:56.120Z,5.54
2019-01-17T01:10:56.124Z,5.59
2019-01-17T01:11:56.158Z,5.58
2019-01-17T01:12:56.112Z,5.59
2019-01-17T01:13:57.513Z,5.57
2019-01-17T01:14:56.460Z,5.57
2019-01-17T01:15:56.255Z,5.59
2019-01-17T01:16:56.249Z,5.61
2019-01-17T01:17:56.275Z,5.59
2019-01-17T01:18:55.978Z,5.58
2019-01-17T01:19:56.052Z,5.57
2019-01-17T01:20:55.990Z,5.6
2019-01-17T01:21:56.297Z,5.58
2019-01-17T01:22:56.121Z,5.6
2019-01-17T01:23:56.315Z,5.63
2019-01-17T01:24:56.044Z,5.6
2019-01-17T01:25:56.068Z,5.61
2019-01-17T01:26:57.779Z,5.61
2019-01-17T01:27:56.446Z,5.63
2019-01-17T01:28:56.453Z,5.64
2019-01-17T01:29:56.371Z,5.64
2019-01-17T01:30:56.072Z,5.64
2019-01-17T01:31:56.132Z,5.64
2019-01-17T01:32:56.290Z,5.63
2019-01-17T01:33:56.135Z,5.62
2019-01-17T01:34:56.288Z,5.62
2019-01-17T01:35:56.046Z,5.6
2019-01-17T01:36:56.110Z,5.63
2019-01-17T01:37:55.945Z,5.61
2019-01-17T01:38:57.664Z,5.63
2019-01-17T01:39:56.098Z,5.65
2019-01-17T01:40:56.126Z,5.64
2019-01-17T01:41:55.996Z,5.63
2019-01-17T01:42:55.925Z,5.64
2019-01-17T01:43:56.080Z,5.65
2019-01-17T01:44:56.120Z,5.62
2019-01-17T01:45:56.814Z,5.62
2019-01-17T01:46:55.953Z,5.64
2019-01-17T01:47:56.015Z,5.63
2019-01-17T01:48:56.264Z,5.61
2019-01-17T01:49:55.952Z,5.63
2019-01-17T01:50:56.130Z,5.63
2019-01-17T01:51:55.958Z,5.62
2019-01-17T01:52:55.901Z,5.64
2019-01-17T01:53:56.105Z,5.63
2019-01-17T01:54:55.952Z,5.63
2019-01-17T01:55:56.088Z,5.63
2019-01-17T01:56:56.058Z,5.63
2019-01-17T01:57:56.336Z,5.64
2019-01-17T01:58:55.940Z,5.65
2019-01-17T01:59:55.940Z,5.65
2019-01-17T02:00:56.160Z,5.64
2019-01-17T02:01:55.916Z,5.64
2019-01-17T02:02:56.329Z,5.64
2019-01-17T02:03:56.323Z,5.64
2019-01-17T02:04:55.916Z,5.65
2019-01-17T02:05:56.094Z,5.65
2019-01-17T02:06:56.107Z,5.66
2019-01-17T02:07:55.990Z,5.66
2019-01-17T02:08:56.011Z,5.66
2019-01-17T02:09:56.437Z,5.65
2019-01-17T02:10:56.435Z,5.65
2019-01-17T02:11:56.050Z,5.65
2019-01-17T02:12:56.756Z,5.66
2019-01-17T02:13:56.270Z,5.65
2019-01-17T02:14:56.820Z,5.66
2019-01-17T02:15:55.938Z,5.64
2019-01-17T02:16:56.170Z,5.66
2019-01-17T02:17:55.948Z,5.66
2019-01-17T02:18:56.259Z,5.67
2019-01-17T02:19:56.080Z,5.68
2019-01-17T02:20:56.393Z,5.67
2019-01-17T02:21:56.247Z,5.68
2019-01-17T02:22:55.968Z,5.67
2019-01-17T02:23:57.065Z,5.66
2019-01-17T02:24:55.940Z,5.66
2019-01-17T02:25:56.156Z,5.67
2019-01-17T02:26:55.912Z,5.66
2019-01-17T02:27:55.877Z,5.66
2019-01-17T02:28:55.879Z,5.67
2019-01-17T02:29:57.389Z,5.67
2019-01-17T02:30:56.260Z,5.66
2019-01-17T02:31:56.276Z,5.66
2019-01-17T02:32:56.159Z,5.65
2019-01-17T02:33:55.922Z,5.66
2019-01-17T02:34:55.902Z,5.67
2019-01-17T02:35:56.746Z,5.67
2019-01-17T02:36:56.411Z,5.66
2019-01-17T02:37:56.740Z,5.67
2019-01-17T02:38:56.344Z,5.68
2019-01-17T02:39:56.114Z,5.67
2019-01-17T02:40:56.201Z,5.66
2019-01-17T02:41:56.034Z,5.67
2019-01-17T02:42:56.123Z,5.67
2019-01-17T02:43:55.876Z,5.67
2019-01-17T02:44:55.894Z,5.67
2019-01-17T02:45:55.884Z,5.66
2019-01-17T02:46:55.908Z,5.66
2019-01-17T02:47:57.713Z,5.67
2019-01-17T02:48:56.014Z,5.67
2019-01-17T02:49:55.979Z,5.67
2019-01-17T02:50:56.498Z,5.67
2019-01-17T02:51:56.199Z,5.68
2019-01-17T02:52:56.445Z,5.66
2019-01-17T02:53:56.126Z,5.68
2019-01-17T02:54:55.962Z,5.67
2019-01-17T02:55:55.930Z,5.68
2019-01-17T02:56:55.953Z,5.67
2019-01-17T02:57:56.452Z,5.67
2019-01-17T02:58:55.918Z,5.67
2019-01-17T02:59:55.883Z,5.68
2019-01-17T03:00:55.965Z,5.67
2019-01-17T03:01:56.283Z,5.68
2019-01-17T03:02:56.728Z,5.68
2019-01-17T03:03:56.187Z,5.69
2019-01-17T03:04:56.039Z,5.68
2019-01-17T03:05:56.321Z,5.68
2019-01-17T03:06:56.320Z,5.68
2019-01-17T03:07:56.482Z,5.68
2019-01-17T03:08:55.838Z,5.67
2019-01-17T03:09:55.873Z,5.68
2019-01-17T03:10:55.972Z,5.68
2019-01-17T03:11:55.835Z,5.69
2019-01-17T03:12:55.908Z,5.7
2019-01-17T03:13:55.877Z,5.71
2019-01-17T03:14:56.264Z,5.71
2019-01-17T03:15:55.798Z,5.7
2019-01-17T03:16:55.901Z,5.71
2019-01-17T03:17:56.248Z,5.7
2019-01-17T03:18:56.116Z,5.71
2019-01-17T03:19:56.212Z,5.72
2019-01-17T03:20:56.303Z,5.73
2019-01-17T03:21:55.894Z,5.71
2019-01-17T03:22:55.879Z,5.71
2019-01-17T03:23:55.869Z,5.72
2019-01-17T03:24:55.837Z,5.71
2019-01-17T03:25:56.243Z,5.72
2019-01-17T03:26:55.884Z,5.73
2019-01-17T03:27:55.846Z,5.72
2019-01-17T03:28:55.821Z,5.72
2019-01-17T03:29:55.859Z,5.71
2019-01-17T03:30:56.098Z,5.73
2019-01-17T03:31:55.865Z,5.72
2019-01-17T03:32:55.950Z,5.73
2019-01-17T03:33:55.798Z,5.72
2019-01-17T03:34:55.825Z,5.73
2019-01-17T03:35:55.823Z,5.73
2019-01-17T03:36:55.832Z,5.72
2019-01-17T03:37:55.829Z,5.72
2019-01-17T03:38:55.808Z,5.72
2019-01-17T03:39:56.350Z,5.72
2019-01-17T03:40:55.776Z,5.73
2019-01-17T03:41:55.866Z,5.72
2019-01-17T03:42:55.823Z,5.72
2019-01-17T03:43:55.819Z,5.73
2019-01-17T03:44:56.100Z,5.72
2019-01-17T03:45:55.819Z,5.73
2019-01-17T03:46:55.825Z,5.73
2019-01-17T03:47:55.819Z,5.73
2019-01-17T03:48:56.095Z,5.73
2019-01-17T03:49:55.830Z,5.73
2019-01-17T03:50:56.007Z,5.73
2019-01-17T03:51:56.399Z,5.72
2019-01-17T03:52:55.846Z,5.73
2019-01-17T03:53:56.194Z,5.73
2019-01-17T03:54:56.112Z,5.73
2019-01-17T03:55:55.901Z,5.73
2019-01-17T03:56:55.831Z,5.72
2019-01-17T03:57:55.860Z,5.73
2019-01-17T03:58:56.163Z,5.72
2019-01-17T03:59:55.816Z,5.72
2019-01-17T04:00:56.333Z,5.71
2019-01-17T04:01:55.806Z,5.71
2019-01-17T04:02:56.118Z,5.72
2019-01-17T04:03:56.301Z,5.73
2019-01-17T04:04:56.409Z,5.71
2019-01-17T04:05:55.795Z,5.73
2019-01-17T04:06:55.967Z,5.74
2019-01-17T04:07:59.138Z,5.72
2019-01-17T04:08:55.814Z,5.73
2019-01-17T04:09:56.825Z,5.73
2019-01-17T04:10:56.014Z,5.73
2019-01-17T04:11:55.826Z,5.72
2019-01-17T04:12:56.705Z,5.72
2019-01-17T04:13:56.094Z,5.75
2019-01-17T04:14:55.870Z,5.74
2019-01-17T04:15:57.001Z,5.73
2019-01-17T04:16:55.818Z,5.73
2019-01-17T04:17:55.864Z,5.75
2019-01-17T04:18:56.072Z,5.75
2019-01-17T04:19:55.758Z,5.76
2019-01-17T04:20:57.656Z,5.75
2019-01-17T04:21:56.461Z,5.77
2019-01-17T04:22:55.927Z,5.79
2019-01-17T04:23:55.875Z,5.78
2019-01-17T04:24:57.754Z,5.79
2019-01-17T04:25:56.327Z,5.79
2019-01-17T04:26:55.744Z,5.81
2019-01-17T04:27:55.880Z,5.82
2019-01-17T04:28:55.963Z,5.84
2019-01-17T04:29:55.824Z,5.85
2019-01-17T04:30:55.996Z,5.85
2019-01-17T04:31:55.775Z,5.85
2019-01-17T04:32:55.899Z,5.87
2019-01-17T04:33:55.743Z,5.9
2019-01-17T04:34:56.313Z,5.87
2019-01-17T04:35:55.805Z,5.89
2019-01-17T04:36:55.800Z,5.89
2019-01-17T04:37:55.819Z,5.9
2019-01-17T04:38:55.806Z,5.89
2019-01-17T04:39:55.969Z,5.9
2019-01-17T04:40:55.984Z,5.92
2019-01-17T04:41:56.109Z,5.93
2019-01-17T04:42:55.990Z,5.94
2019-01-17T04:43:55.788Z,5.95
2019-01-17T04:44:55.825Z,5.94
2019-01-17T04:45:56.202Z,5.95
2019-01-17T04:46:57.532Z,5.95
2019-01-17T04:47:55.939Z,5.96
2019-01-17T04:48:55.770Z,5.99
2019-01-17T04:49:56.162Z,5.97
2019-01-17T04:50:55.723Z,5.98
2019-01-17T04:51:55.776Z,5.99
2019-01-17T04:52:55.860Z,6
2019-01-17T04:53:55.756Z,5.99
2019-01-17T04:54:56.409Z,6.01
2019-01-17T04:55:55.719Z,6
2019-01-17T04:56:55.688Z,6.01
2019-01-17T04:57:56.030Z,6.03
2019-01-17T04:58:55.725Z,6.01
2019-01-17T04:59:55.954Z,6.01
2019-01-17T05:00:57.087Z,6.02
2019-01-17T05:01:55.947Z,6.02
2019-01-17T05:02:56.208Z,6.02
2019-01-17T05:03:55.907Z,6.03
2019-01-17T05:04:55.823Z,6.04
2019-01-17T05:05:55.842Z,6.06
2019-01-17T05:06:55.758Z,6.05
2019-01-17T05:07:55.978Z,6.08
2019-01-17T05:08:55.766Z,6.1
2019-01-17T05:09:55.658Z,6.11
2019-01-17T05:10:55.728Z,6.12
2019-01-17T05:11:55.706Z,6.13
2019-01-17T05:12:55.932Z,6.14
2019-01-17T05:13:55.835Z,6.14
2019-01-17T05:14:55.841Z,6.16
2019-01-17T05:15:55.836Z,6.15
2019-01-17T05:16:56.867Z,6.17
2019-01-17T05:17:55.863Z,6.16
2019-01-17T05:18:55.683Z,6.18
2019-01-17T05:19:55.946Z,6.22
2019-01-17T05:20:55.672Z,6.23
2019-01-17T05:21:55.800Z,6.21
2019-01-17T05:22:55.780Z,6.23
2019-01-17T05:23:55.689Z,6.18
2019-01-17T05:24:55.820Z,6.23
2019-01-17T05:25:57.550Z,6.23
2019-01-17T05:26:57.231Z,6.21
2019-01-17T05:27:56.000Z,6.22
2019-01-17T05:28:55.729Z,6.24
2019-01-17T05:29:55.994Z,6.25
2019-01-17T05:30:55.811Z,6.21
2019-01-17T05:31:57.493Z,6.25
2019-01-17T05:32:55.964Z,6.23
2019-01-17T05:33:55.684Z,6.23
2019-01-17T05:34:55.604Z,6.25
2019-01-17T05:35:55.854Z,6.23
2019-01-17T05:36:55.982Z,6.26
2019-01-17T05:37:55.756Z,6.23
2019-01-17T05:38:55.881Z,6.24
2019-01-17T05:39:55.990Z,6.27
2019-01-17T05:40:55.855Z,6.25
2019-01-17T05:41:55.645Z,6.26
2019-01-17T05:42:55.896Z,6.25
2019-01-17T05:43:55.705Z,6.28
2019-01-17T05:44:55.792Z,6.27
2019-01-17T05:45:55.913Z,6.28
2019-01-17T05:46:55.630Z,6.24
2019-01-17T05:47:56.128Z,6.26
2019-01-17T05:48:55.820Z,6.28
2019-01-17T05:49:57.450Z,6.24
2019-01-17T05:50:55.657Z,6.25
2019-01-17T05:51:55.784Z,6.24
2019-01-17T05:52:55.653Z,6.25
2019-01-17T05:53:55.993Z,6.27
2019-01-17T05:54:55.695Z,6.26
2019-01-17T05:55:56.622Z,6.25
2019-01-17T05:56:55.808Z,6.23
2019-01-17T05:57:55.925Z,6.26
2019-01-17T05:58:55.673Z,6.26
2019-01-17T05:59:56.684Z,6.29
2019-01-17T06:00:55.799Z,6.27
2019-01-17T06:01:55.642Z,6.25
2019-01-17T06:02:55.720Z,6.27
2019-01-17T06:03:55.656Z,6.24
2019-01-17T06:04:55.858Z,6.27
2019-01-17T06:05:55.643Z,6.28
2019-01-17T06:06:55.852Z,6.27
2019-01-17T06:07:55.875Z,6.28
2019-01-17T06:08:55.973Z,6.26
2019-01-17T06:09:56.231Z,6.27
2019-01-17T06:10:56.691Z,6.28
2019-01-17T06:11:55.624Z,6.28
2019-01-17T06:12:56.321Z,6.27
2019-01-17T06:13:55.743Z,6.28
2019-01-17T06:14:55.620Z,6.3
2019-01-17T06:15:55.623Z,6.29
2019-01-17T06:16:55.613Z,6.27
2019-01-17T06:17:56.053Z,6.25
2019-01-17T06:18:55.836Z,6.28
2019-01-17T06:19:55.667Z,6.29
2019-01-17T06:20:57.429Z,6.31
2019-01-17T06:21:55.873Z,6.29
2019-01-17T06:22:55.600Z,6.28
2019-01-17T06:23:56.279Z,6.28
2019-01-17T06:24:55.893Z,6.28
2019-01-17T06:25:55.832Z,6.28
2019-01-17T06:26:55.624Z,6.32
2019-01-17T06:27:55.819Z,6.32
2019-01-17T06:28:55.630Z,6.34
2019-01-17T06:29:55.601Z,6.31
2019-01-17T06:30:55.660Z,6.32
2019-01-17T06:31:57.775Z,6.33
2019-01-17T06:32:55.629Z,6.31
2019-01-17T06:33:55.696Z,6.31
2019-01-17T06:34:55.666Z,6.32
2019-01-17T06:35:55.672Z,6.33
2019-01-17T06:36:55.705Z,6.31
2019-01-17T06:37:55.708Z,6.34
2019-01-17T06:38:55.689Z,6.33
2019-01-17T06:39:57.416Z,6.34
2019-01-17T06:40:56.291Z,6.34
2019-01-17T06:41:56.146Z,6.34
2019-01-17T06:42:55.721Z,6.33
2019-01-17T06:43:55.636Z,6.36
2019-01-17T06:44:55.612Z,6.37
2019-01-17T06:45:55.639Z,6.38
2019-01-17T06:46:55.569Z,6.35
2019-01-17T06:47:55.523Z,6.38
2019-01-17T06:48:55.642Z,6.37
2019-01-17T06:49:55.726Z,6.39
2019-01-17T06:51:03.637Z,6.38
2019-01-17T06:51:55.559Z,6.39
2019-01-17T06:52:55.657Z,6.38
2019-01-17T06:53:55.537Z,6.38
2019-01-17T06:54:55.613Z,6.38
2019-01-17T06:55:55.577Z,6.39
2019-01-17T06:56:55.586Z,6.39
2019-01-17T06:57:55.570Z,6.38
2019-01-17T06:58:55.675Z,6.4
2019-01-17T06:59:56.143Z,6.4
2019-01-17T07:00:55.509Z,6.42
2019-01-17T07:01:55.558Z,6.4
2019-01-17T07:02:55.564Z,6.42
2019-01-17T07:03:55.703Z,6.41
2019-01-17T07:04:55.522Z,6.43
2019-01-17T07:05:55.656Z,6.42
2019-01-17T07:06:55.568Z,6.45
2019-01-17T07:07:55.727Z,6.43
2019-01-17T07:08:55.956Z,6.43
2019-01-17T07:09:55.567Z,6.44
2019-01-17T07:10:55.674Z,6.43
2019-01-17T07:11:55.567Z,6.45
2019-01-17T07:12:55.748Z,6.46
2019-01-17T07:13:55.490Z,6.47
2019-01-17T07:14:55.631Z,6.46
2019-01-17T07:15:55.312Z,6.45
2019-01-17T07:16:55.572Z,6.46
2019-01-17T07:17:55.498Z,6.47
2019-01-17T07:18:55.556Z,6.45
2019-01-17T07:19:55.545Z,6.47
2019-01-17T07:20:56.218Z,6.46
2019-01-17T07:21:55.508Z,6.46
2019-01-17T07:22:55.585Z,6.47
2019-01-17T07:23:55.497Z,6.48
2019-01-17T07:24:56.241Z,6.46
2019-01-17T07:25:55.902Z,6.47
2019-01-17T07:26:55.550Z,6.49
2019-01-17T07:27:55.654Z,6.49
2019-01-17T07:28:55.691Z,6.49
2019-01-17T07:29:55.717Z,6.51
2019-01-17T07:30:55.838Z,6.49
2019-01-17T07:31:55.512Z,6.49
2019-01-17T07:32:55.634Z,6.51
2019-01-17T07:33:55.942Z,6.49
2019-01-17T07:34:55.641Z,6.49
2019-01-17T07:35:56.176Z,6.53
2019-01-17T07:36:55.469Z,6.5
2019-01-17T07:37:55.851Z,6.52
2019-01-17T07:38:55.790Z,6.54
2019-01-17T07:39:55.949Z,6.53
2019-01-17T07:40:55.932Z,6.55
2019-01-17T07:41:55.885Z,6.53
2019-01-17T07:42:55.843Z,6.56
2019-01-17T07:43:55.436Z,6.54
2019-01-17T07:44:55.542Z,6.54
2019-01-17T07:45:55.538Z,6.56
2019-01-17T07:46:55.591Z,6.57
2019-01-17T07:47:56.203Z,6.58
2019-01-17T07:48:55.464Z,6.55
2019-01-17T07:49:55.694Z,6.58
2019-01-17T07:50:56.357Z,6.58
2019-01-17T07:51:55.597Z,6.56
2019-01-17T07:52:55.800Z,6.57
2019-01-17T07:53:55.665Z,6.59
2019-01-17T07:54:55.615Z,6.6
2019-01-17T07:55:56.010Z,6.58
2019-01-17T07:56:55.526Z,6.56
2019-01-17T07:57:55.648Z,6.6
2019-01-17T07:59:55.732Z,6.61
2019-01-17T08:00:55.628Z,6.61
2019-01-17T08:01:58.054Z,6.62
2019-01-17T08:02:55.991Z,6.6
2019-01-17T08:03:55.627Z,6.6
2019-01-17T08:04:55.738Z,6.63
2019-01-17T08:05:55.534Z,6.64
2019-01-17T08:06:57.184Z,6.63
2019-01-17T08:07:56.619Z,6.63
2019-01-17T08:08:55.610Z,6.65
2019-01-17T08:09:55.486Z,6.64
2019-01-17T08:10:55.489Z,6.66
2019-01-17T08:11:55.849Z,6.66
2019-01-17T08:12:55.411Z,6.65
2019-01-17T08:13:55.676Z,6.65
2019-01-17T08:14:55.596Z,6.67
2019-01-17T08:15:55.576Z,6.64
2019-01-17T08:16:55.974Z,6.63
2019-01-17T08:17:55.623Z,6.64
2019-01-17T08:18:55.426Z,6.63
2019-01-17T08:19:56.075Z,6.64
2019-01-17T08:20:55.591Z,6.65
2019-01-17T08:21:55.445Z,6.65
2019-01-17T08:22:57.249Z,6.66
2019-01-17T08:23:55.828Z,6.67
2019-01-17T08:24:55.607Z,6.64
2019-01-17T08:25:55.490Z,6.66
2019-01-17T08:26:55.635Z,6.66
2019-01-17T08:27:55.628Z,6.66
2019-01-17T08:28:55.586Z,6.68
2019-01-17T08:30:55.621Z,6.66
2019-01-17T08:31:55.416Z,6.66
2019-01-17T08:32:55.408Z,6.65
2019-01-17T08:33:56.555Z,6.64
2019-01-17T08:34:56.686Z,6.65
2019-01-17T08:35:57.887Z,6.66
2019-01-17T08:36:58.725Z,6.68
2019-01-17T08:37:55.491Z,6.67
2019-01-17T08:39:23.160Z,6.68
2019-01-17T08:39:55.543Z,6.68
2019-01-17T08:40:55.520Z,6.68
2019-01-17T08:41:55.427Z,6.69
2019-01-17T08:44:12.229Z,6.67
2019-01-17T08:47:09.555Z,6.69
2019-01-17T08:47:55.516Z,6.69
2019-01-17T08:48:57.264Z,6.67
2019-01-17T08:49:55.369Z,6.7
2019-01-17T08:50:55.429Z,6.73
2019-01-17T08:51:55.407Z,6.73
2019-01-17T08:52:56.721Z,6.72
2019-01-17T08:53:55.625Z,6.72
2019-01-17T08:54:55.480Z,6.72
2019-01-17T08:56:01.349Z,6.75
2019-01-17T08:56:55.624Z,6.72
2019-01-17T08:57:55.345Z,6.74
2019-01-17T08:58:55.473Z,6.73
2019-01-17T08:59:55.537Z,6.74
2019-01-17T09:00:55.479Z,6.74
2019-01-17T09:01:55.374Z,6.74
2019-01-17T09:02:55.583Z,6.75
2019-01-17T09:03:55.414Z,6.75
2019-01-17T09:04:55.378Z,6.72
2019-01-17T09:05:55.347Z,6.73
2019-01-17T09:06:55.642Z,6.74
2019-01-17T09:07:55.931Z,6.73
2019-01-17T09:08:55.593Z,6.75
2019-01-17T09:09:55.628Z,6.76
2019-01-17T09:10:56.050Z,6.76
2019-01-17T09:11:55.331Z,6.75
2019-01-17T09:12:55.733Z,6.76
2019-01-17T09:13:55.460Z,6.77
2019-01-17T09:14:57.210Z,6.76
2019-01-17T09:15:55.395Z,6.75
2019-01-17T09:16:57.223Z,6.73
2019-01-17T09:17:55.341Z,6.75
2019-01-17T09:18:55.401Z,6.75
2019-01-17T09:19:55.587Z,6.76
2019-01-17T09:20:55.495Z,6.76
2019-01-17T09:21:55.505Z,6.74
2019-01-17T09:22:55.645Z,6.73
2019-01-17T09:23:55.572Z,6.73
2019-01-17T09:24:55.373Z,6.73
2019-01-17T09:25:55.480Z,6.73
2019-01-17T09:26:55.651Z,6.73
2019-01-17T09:27:55.537Z,6.73
2019-01-17T09:28:55.397Z,6.74
2019-01-17T09:29:55.371Z,6.73
2019-01-17T09:30:55.443Z,6.72
2019-01-17T09:31:55.288Z,6.73
2019-01-17T09:32:56.517Z,6.71
2019-01-17T09:33:55.507Z,6.73
2019-01-17T09:34:55.752Z,6.74
2019-01-17T09:35:55.579Z,6.74
2019-01-17T09:36:55.740Z,6.75
2019-01-17T09:37:55.846Z,6.79
2019-01-17T09:38:55.340Z,6.76
2019-01-17T09:39:55.537Z,6.8
2019-01-17T09:40:56.671Z,6.81
2019-01-17T09:41:56.314Z,6.84
2019-01-17T09:42:55.350Z,6.83
2019-01-17T09:43:55.628Z,6.83
2019-01-17T09:44:55.381Z,6.84
2019-01-17T09:45:55.453Z,6.84
2019-01-17T09:46:55.286Z,6.85
2019-01-17T09:47:55.393Z,6.86
2019-01-17T09:48:55.508Z,6.85
2019-01-17T09:49:55.465Z,6.84
2019-01-17T09:50:55.703Z,6.84
2019-01-17T09:51:55.450Z,6.85
2019-01-17T09:52:55.607Z,6.87
2019-01-17T09:53:55.339Z,6.86
2019-01-17T09:54:55.481Z,6.87
2019-01-17T09:55:55.377Z,6.87
2019-01-17T09:56:55.384Z,6.88
2019-01-17T09:57:55.687Z,6.87
2019-01-17T09:58:55.353Z,6.88
2019-01-17T09:59:56.587Z,6.87
2019-01-17T10:00:55.496Z,6.86
2019-01-17T10:01:55.547Z,6.89
2019-01-17T10:02:56.263Z,6.89
2019-01-17T10:03:55.798Z,6.88
2019-01-17T10:04:55.598Z,6.88
2019-01-17T10:05:55.732Z,6.88
2019-01-17T10:06:55.407Z,6.9
2019-01-17T10:07:56.379Z,6.89
2019-01-17T10:08:55.373Z,6.89
2019-01-17T10:09:55.676Z,6.88
2019-01-17T10:10:55.437Z,6.9
2019-01-17T10:11:55.291Z,6.88
2019-01-17T10:12:55.683Z,6.88
2019-01-17T10:13:55.356Z,6.87
2019-01-17T10:14:55.390Z,6.87
2019-01-17T10:16:07.318Z,6.87
2019-01-17T10:16:55.404Z,6.87
2019-01-17T10:18:55.282Z,6.88
2019-01-17T10:19:55.289Z,6.87
2019-01-17T10:20:55.290Z,6.89
2019-01-17T10:21:55.336Z,6.88
2019-01-17T10:22:55.624Z,6.89
2019-01-17T10:23:55.427Z,6.88
2019-01-17T10:24:55.231Z,6.88
2019-01-17T10:25:55.378Z,6.88
2019-01-17T10:26:55.282Z,6.89
2019-01-17T10:27:55.763Z,6.86
2019-01-17T10:28:55.259Z,6.87
2019-01-17T10:29:55.264Z,6.88
2019-01-17T10:30:55.439Z,6.88
2019-01-17T10:31:55.274Z,6.88
2019-01-17T10:32:56.134Z,6.91
2019-01-17T10:33:55.561Z,6.94
2019-01-17T10:34:55.355Z,6.96
2019-01-17T10:35:55.546Z,6.95
2019-01-17T10:36:55.268Z,6.98
2019-01-17T10:37:55.260Z,7.01
2019-01-17T10:38:55.213Z,7.02
2019-01-17T10:39:55.687Z,7
2019-01-17T10:40:55.664Z,7.02
2019-01-17T10:41:55.266Z,6.99
2019-01-17T10:42:55.204Z,7
2019-01-17T10:43:55.490Z,7
2019-01-17T10:44:55.264Z,6.99
2019-01-17T10:45:55.295Z,6.97
2019-01-17T10:46:55.325Z,6.97
2019-01-17T10:48:00.576Z,6.97
2019-01-17T10:48:55.224Z,7.02
2019-01-17T10:49:55.286Z,7.02
2019-01-17T10:50:55.895Z,7.03
2019-01-17T10:51:55.288Z,7
2019-01-17T10:52:55.361Z,6.98
2019-01-17T10:53:55.283Z,6.99
2019-01-17T10:54:55.194Z,6.98
2019-01-17T10:55:55.184Z,6.94
2019-01-17T10:56:55.344Z,6.96
2019-01-17T10:57:55.260Z,6.92
2019-01-17T10:58:55.365Z,6.92
2019-01-17T10:59:55.522Z,6.91
2019-01-17T11:00:55.346Z,6.91
2019-01-17T11:01:55.305Z,6.91
2019-01-17T11:02:55.185Z,6.9
2019-01-17T11:03:57.073Z,6.86
2019-01-17T11:04:55.050Z,6.89
2019-01-17T11:05:55.197Z,6.93
2019-01-17T11:06:55.186Z,6.92
2019-01-17T11:07:55.344Z,6.91
2019-01-17T11:08:55.289Z,6.89
2019-01-17T11:09:55.415Z,6.88
2019-01-17T11:10:55.549Z,6.89
2019-01-17T11:11:55.526Z,6.89
2019-01-17T11:12:55.310Z,6.89
2019-01-17T11:13:55.234Z,6.89
2019-01-17T11:14:55.448Z,6.87
2019-01-17T11:15:55.177Z,6.83
2019-01-17T11:16:55.357Z,6.81
2019-01-17T11:17:56.001Z,6.83
2019-01-17T11:18:55.745Z,6.84
2019-01-17T11:19:55.412Z,6.83
2019-01-17T11:20:55.389Z,6.83
2019-01-17T11:21:55.150Z,6.83
2019-01-17T11:22:55.301Z,6.86
2019-01-17T11:23:55.295Z,6.85
2019-01-17T11:24:55.139Z,6.84
2019-01-17T11:25:55.352Z,6.8
2019-01-17T11:26:55.250Z,6.8
2019-01-17T11:27:55.481Z,6.78
2019-01-17T11:28:55.183Z,6.79
2019-01-17T11:29:55.192Z,6.84
2019-01-17T11:30:55.516Z,6.89
2019-01-17T11:31:55.126Z,6.75
2019-01-17T11:32:55.200Z,6.82
2019-01-17T11:33:55.229Z,6.93
2019-01-17T11:34:55.512Z,6.96
2019-01-17T11:35:55.189Z,6.92
2019-01-17T11:36:55.916Z,6.95
2019-01-17T11:37:55.180Z,6.89
2019-01-17T11:38:55.263Z,6.86
2019-01-17T11:39:55.461Z,6.84
2019-01-17T11:40:55.272Z,6.79
2019-01-17T11:41:55.222Z,6.64
2019-01-17T11:42:55.665Z,6.63
2019-01-17T11:43:54.996Z,6.69
2019-01-17T11:44:55.436Z,6.62
2019-01-17T11:45:55.107Z,6.59
2019-01-17T11:46:55.393Z,6.58
2019-01-17T11:47:55.391Z,6.6
2019-01-17T11:48:55.156Z,6.62
2019-01-17T11:49:55.407Z,6.68
2019-01-17T11:50:55.390Z,6.63
2019-01-17T11:51:55.524Z,6.51
2019-01-17T11:52:55.440Z,6.53
2019-01-17T11:53:55.243Z,6.58
2019-01-17T11:54:55.444Z,6.63
2019-01-17T11:55:55.171Z,6.46
2019-01-17T11:56:55.182Z,6.47
2019-01-17T11:57:55.334Z,6.46
2019-01-17T11:59:00.404Z,6.48
2019-01-17T11:59:55.184Z,6.5
2019-01-17T12:00:57.667Z,6.51
2019-01-17T12:01:55.203Z,6.51
2019-01-17T12:02:55.227Z,6.47
2019-01-17T12:03:55.257Z,6.54
2019-01-17T12:04:55.180Z,6.5
2019-01-17T12:05:55.214Z,6.45
2019-01-17T12:06:55.594Z,6.52
2019-01-17T12:07:55.246Z,6.24
2019-01-17T12:08:55.268Z,6.23
2019-01-17T12:09:55.326Z,6.2
2019-01-17T12:10:55.471Z,6.21
2019-01-17T12:11:55.436Z,6.01
2019-01-17T12:12:55.128Z,5.99
2019-01-17T12:13:55.081Z,5.97
2019-01-17T12:14:55.111Z,5.95
2019-01-17T12:15:55.114Z,5.97
2019-01-17T12:16:55.582Z,5.95
2019-01-17T12:17:56.960Z,5.96
2019-01-17T12:18:56.855Z,5.94
2019-01-17T12:19:55.502Z,5.92
2019-01-17T12:20:55.153Z,5.94
2019-01-17T12:21:55.077Z,5.91
2019-01-17T12:22:55.287Z,5.93
2019-01-17T12:23:55.428Z,5.98
2019-01-17T12:24:55.206Z,5.97
2019-01-17T12:25:55.109Z,5.94
2019-01-17T12:26:55.127Z,6
2019-01-17T12:27:55.174Z,5.93
2019-01-17T12:28:56.232Z,5.96
2019-01-17T12:29:55.137Z,5.88
2019-01-17T12:30:55.173Z,5.97
2019-01-17T12:31:55.020Z,5.92
2019-01-17T12:32:55.261Z,5.89
2019-01-17T12:33:55.252Z,5.92
2019-01-17T12:34:55.073Z,5.92
2019-01-17T12:35:55.043Z,5.94
2019-01-17T12:36:55.188Z,5.93
2019-01-17T12:37:55.646Z,5.99
2019-01-17T12:38:55.286Z,5.93
2019-01-17T12:39:55.388Z,5.87
2019-01-17T12:40:55.095Z,5.93
2019-01-17T12:41:55.202Z,5.97
2019-01-17T12:42:55.235Z,5.87
2019-01-17T12:43:55.219Z,5.84
2019-01-17T12:44:55.275Z,5.88
2019-01-17T12:45:55.322Z,5.92
2019-01-17T12:46:55.655Z,5.96
2019-01-17T12:47:55.074Z,5.89
2019-01-17T12:48:55.874Z,5.94
2019-01-17T12:49:55.113Z,5.86
2019-01-17T12:50:55.336Z,5.88
2019-01-17T12:51:55.242Z,5.87
2019-01-17T12:52:55.066Z,5.95
2019-01-17T12:53:55.294Z,5.9
2019-01-17T12:54:55.304Z,5.87
2019-01-17T12:55:55.162Z,5.91
2019-01-17T12:56:55.447Z,5.92
2019-01-17T12:57:55.370Z,5.86
2019-01-17T12:58:55.059Z,5.84
2019-01-17T12:59:55.056Z,5.8
2019-01-17T13:00:55.229Z,5.79
2019-01-17T13:01:55.252Z,5.86
2019-01-17T13:02:55.190Z,5.9
2019-01-17T13:03:55.002Z,5.91
2019-01-17T13:04:55.110Z,5.88
2019-01-17T13:05:55.337Z,5.96
2019-01-17T13:06:55.204Z,5.85
2019-01-17T13:07:55.969Z,5.87
2019-01-17T13:08:55.037Z,5.84
2019-01-17T13:09:55.412Z,5.89
2019-01-17T13:10:58.367Z,5.9
2019-01-17T13:11:55.214Z,5.97
2019-01-17T13:12:55.561Z,5.93
2019-01-17T13:13:55.351Z,5.92
2019-01-17T13:14:55.566Z,5.84
2019-01-17T13:15:55.128Z,5.89
2019-01-17T13:16:56.819Z,5.9
2019-01-17T13:17:55.265Z,5.88
2019-01-17T13:18:55.381Z,5.91
2019-01-17T13:19:54.993Z,5.88
2019-01-17T13:20:55.158Z,5.89
2019-01-17T13:21:55.517Z,5.87
2019-01-17T13:22:55.025Z,5.82
2019-01-17T13:23:55.221Z,5.8
2019-01-17T13:24:55.258Z,5.79
2019-01-17T13:25:55.193Z,5.84
2019-01-17T13:27:01.342Z,5.82